aviador You're here:

RPMZ Decoded Metar

ZAMBOANGA in PHILIPPINES
Report Time2018-06-23 05:00:00
UTC Time2018-06-23 06:05:20
Flight Rules vfr VFR
Wind100° at 06 kt
W.Decomp.*RWY 09: 5.9 kt HW 0.9 kt RCW
W.Rank100° ranks 31
Current wind is above 100° avg. (2.8)
Visibility9999 m
Phenomena:N/A
Clouds:Few 017 Hf
Expected CloudBase > 4,000 ft AGL from Temp-Dew spread
CeilingNone
Temp34°C (ISA +19)
Dew Point24°C (56% RH)
Heat Index40.6°C
QNH1008 hPa
Density Alt2,743 ft
Elevation20 ft
Report Wrong Elevation
Raw Report
METAR RPMZ 230500Z 10006KT 9999 FEW017 34/24 Q1008 RMK A2977=

Extra information for RPMZ:More info

Metar Taf Metar & Taf Last 4 Metars F.Rules Stats Wind Profile Meteogram Temp Stats Airport Information Weather charts Add Link Nearby VenuesMetar ALERT Operation Metar Decoded Social comments